sensor_id;sensor_type;location;lat;lon;timestamp;pressure;altitude;pressure_sealevel;temperature;humidity
4570;BME280;2297;51.442;6.996;2023-03-01T00:01:27;101718.00;;;3.86;36.90
4570;BME280;2297;51.442;6.996;2023-03-01T00:03:54;101722.28;;;3.84;36.86
4570;BME280;2297;51.442;6.996;2023-03-01T00:06:22;101715.09;;;3.76;37.07
4570;BME280;2297;51.442;6.996;2023-03-01T00:08:49;101724.78;;;3.79;37.08
4570;BME280;2297;51.442;6.996;2023-03-01T00:11:18;101715.28;;;3.82;36.85
4570;BME280;2297;51.442;6.996;2023-03-01T00:13:50;101721.22;;;3.77;36.89
4570;BME280;2297;51.442;6.996;2023-03-01T00:16:19;101718.63;;;3.78;36.83
4570;BME280;2297;51.442;6.996;2023-03-01T00:18:46;101720.34;;;3.76;36.98
4570;BME280;2297;51.442;6.996;2023-03-01T00:21:13;101709.88;;;3.76;37.00
4570;BME280;2297;51.442;6.996;2023-03-01T00:23:40;101712.28;;;3.70;37.12
4570;BME280;2297;51.442;6.996;2023-03-01T00:26:08;101700.88;;;3.68;37.03
4570;BME280;2297;51.442;6.996;2023-03-01T00:28:35;101694.84;;;3.71;37.20
4570;BME280;2297;51.442;6.996;2023-03-01T00:31:04;101707.88;;;3.69;36.99
4570;BME280;2297;51.442;6.996;2023-03-01T00:33:31;101699.13;;;3.67;37.06
4570;BME280;2297;51.442;6.996;2023-03-01T00:35:58;101695.66;;;3.68;37.28
4570;BME280;2297;51.442;6.996;2023-03-01T00:38:25;101692.03;;;3.63;37.32
4570;BME280;2297;51.442;6.996;2023-03-01T00:40:52;101695.28;;;3.56;37.35
4570;BME280;2297;51.442;6.996;2023-03-01T00:43:19;101700.44;;;3.53;37.56
4570;BME280;2297;51.442;6.996;2023-03-01T00:45:46;101698.72;;;3.55;37.55
4570;BME280;2297;51.442;6.996;2023-03-01T00:48:14;101689.06;;;3.52;37.51
4570;BME280;2297;51.442;6.996;2023-03-01T00:50:40;101690.63;;;3.45;37.58
4570;BME280;2297;51.442;6.996;2023-03-01T00:53:07;101687.91;;;3.42;37.69
4570;BME280;2297;51.442;6.996;2023-03-01T00:55:33;101684.59;;;3.48;37.64
4570;BME280;2297;51.442;6.996;2023-03-01T00:58:02;101681.94;;;3.46;37.79
4570;BME280;2297;51.442;6.996;2023-03-01T01:00:28;101679.13;;;3.40;37.69
4570;BME280;2297;51.442;6.996;2023-03-01T01:02:55;101680.09;;;3.42;37.68
4570;BME280;2297;51.442;6.996;2023-03-01T01:05:23;101683.50;;;3.40;37.69
4570;BME280;2297;51.442;6.996;2023-03-01T01:07:50;101675.41;;;3.32;37.86
4570;BME280;2297;51.442;6.996;2023-03-01T01:10:16;101670.19;;;3.32;37.74
4570;BME280;2297;51.442;6.996;2023-03-01T01:12:46;101668.53;;;3.34;37.94
4570;BME280;2297;51.442;6.996;2023-03-01T01:15:13;101677.09;;;3.30;37.88
4570;BME280;2297;51.442;6.996;2023-03-01T01:17:42;101668.38;;;3.29;37.90
4570;BME280;2297;51.442;6.996;2023-03-01T01:20:10;101656.38;;;3.36;37.82
4570;BME280;2297;51.442;6.996;2023-03-01T01:22:38;101661.53;;;3.33;37.71
4570;BME280;2297;51.442;6.996;2023-03-01T01:25:05;101650.88;;;3.27;37.91
4570;BME280;2297;51.442;6.996;2023-03-01T01:27:32;101653.41;;;3.24;38.00
4570;BME280;2297;51.442;6.996;2023-03-01T01:29:59;101636.91;;;3.25;37.94
4570;BME280;2297;51.442;6.996;2023-03-01T01:32:25;101638.63;;;3.24;38.13
4570;BME280;2297;51.442;6.996;2023-03-01T01:34:52;101643.84;;;3.24;38.10
4570;BME280;2297;51.442;6.996;2023-03-01T01:37:19;101637.69;;;3.22;38.07
4570;BME280;2297;51.442;6.996;2023-03-01T01:39:47;101629.81;;;3.21;38.16
4570;BME280;2297;51.442;6.996;2023-03-01T01:42:16;101633.22;;;3.18;38.04
4570;BME280;2297;51.442;6.996;2023-03-01T01:44:46;101634.88;;;3.16;38.23
4570;BME280;2297;51.442;6.996;2023-03-01T01:47:14;101632.91;;;3.07;38.26
4570;BME280;2297;51.442;6.996;2023-03-01T01:52:52;101632.00;;;3.07;38.43
4570;BME280;2297;51.442;6.996;2023-03-01T01:55:24;101625.97;;;3.09;38.36
4570;BME280;2297;51.442;6.996;2023-03-01T01:57:55;101627.59;;;3.06;38.31
4570;BME280;2297;51.442;6.996;2023-03-01T02:00:29;101625.91;;;3.06;38.37
4570;BME280;2297;51.442;6.996;2023-03-01T02:02:59;101630.13;;;3.03;38.25
4570;BME280;2297;51.442;6.996;2023-03-01T02:05:33;101640.63;;;3.04;38.28
4570;BME280;2297;51.442;6.996;2023-03-01T02:08:02;101639.56;;;2.99;38.46
4570;BME280;2297;51.442;6.996;2023-03-01T02:10:33;101636.06;;;2.97;38.51
4570;BME280;2297;51.442;6.996;2023-03-01T02:13:01;101634.19;;;2.93;38.51
4570;BME280;2297;51.442;6.996;2023-03-01T02:15:32;101627.09;;;2.89;38.52
4570;BME280;2297;51.442;6.996;2023-03-01T02:17:59;101616.53;;;2.86;38.56
4570;BME280;2297;51.442;6.996;2023-03-01T02:20:33;101627.09;;;2.89;38.60
4570;BME280;2297;51.442;6.996;2023-03-01T02:23:01;101620.72;;;2.80;38.58
4570;BME280;2297;51.442;6.996;2023-03-01T02:25:35;101609.28;;;2.75;38.63
4570;BME280;2297;51.442;6.996;2023-03-01T02:30:39;101614.28;;;2.69;38.86
4570;BME280;2297;51.442;6.996;2023-03-01T02:33:26;101610.72;;;2.67;39.00
4570;BME280;2297;51.442;6.996;2023-03-01T02:35:53;101613.22;;;2.62;38.97
4570;BME280;2297;51.442;6.996;2023-03-01T02:38:21;101615.84;;;2.64;38.99
4570;BME280;2297;51.442;6.996;2023-03-01T02:40:49;101606.16;;;2.60;38.90
4570;BME280;2297;51.442;6.996;2023-03-01T02:43:17;101607.03;;;2.60;39.08
4570;BME280;2297;51.442;6.996;2023-03-01T02:45:49;101604.34;;;2.57;39.20
4570;BME280;2297;51.442;6.996;2023-03-01T02:48:16;101605.22;;;2.58;39.25
4570;BME280;2297;51.442;6.996;2023-03-01T02:50:55;101605.94;;;2.54;39.31
4570;BME280;2297;51.442;6.996;2023-03-01T02:53:34;101616.56;;;2.58;39.27
4570;BME280;2297;51.442;6.996;2023-03-01T02:56:03;101612.13;;;2.56;39.34
4570;BME280;2297;51.442;6.996;2023-03-01T02:58:29;101615.59;;;2.56;39.35
4570;BME280;2297;51.442;6.996;2023-03-01T03:00:57;101616.44;;;2.55;39.29
4570;BME280;2297;51.442;6.996;2023-03-01T03:03:26;101619.00;;;2.54;39.39
4570;BME280;2297;51.442;6.996;2023-03-01T03:05:52;101611.00;;;2.47;39.44
4570;BME280;2297;51.442;6.996;2023-03-01T03:08:19;101605.56;;;2.41;39.65
4570;BME280;2297;51.442;6.996;2023-03-01T03:10:49;101603.81;;;2.42;39.72
4570;BME280;2297;51.442;6.996;2023-03-01T03:13:15;101613.38;;;2.41;39.56
4570;BME280;2297;51.442;6.996;2023-03-01T03:15:43;101613.34;;;2.40;39.78
4570;BME280;2297;51.442;6.996;2023-03-01T03:18:13;101609.81;;;2.39;39.74
4570;BME280;2297;51.442;6.996;2023-03-01T03:20:41;101608.16;;;2.41;39.76
4570;BME280;2297;51.442;6.996;2023-03-01T03:23:08;101601.16;;;2.40;39.86
4570;BME280;2297;51.442;6.996;2023-03-01T03:25:35;101612.59;;;2.44;39.74
4570;BME280;2297;51.442;6.996;2023-03-01T03:28:03;101605.66;;;2.44;39.58
4570;BME280;2297;51.442;6.996;2023-03-01T03:30:36;101607.84;;;2.32;39.66
4570;BME280;2297;51.442;6.996;2023-03-01T03:33:04;101603.56;;;2.34;39.63
4570;BME280;2297;51.442;6.996;2023-03-01T03:35:38;101606.06;;;2.31;39.70
4570;BME280;2297;51.442;6.996;2023-03-01T03:38:07;101602.41;;;2.26;39.82
4570;BME280;2297;51.442;6.996;2023-03-01T03:40:43;101595.66;;;2.31;39.88
4570;BME280;2297;51.442;6.996;2023-03-01T03:43:12;101589.69;;;2.35;39.77
4570;BME280;2297;51.442;6.996;2023-03-01T03:45:39;101586.81;;;2.27;39.74
4570;BME280;2297;51.442;6.996;2023-03-01T03:48:08;101588.66;;;2.30;39.61
4570;BME280;2297;51.442;6.996;2023-03-01T03:50:37;101586.94;;;2.30;39.65
4570;BME280;2297;51.442;6.996;2023-03-01T03:53:05;101584.88;;;2.20;39.72
4570;BME280;2297;51.442;6.996;2023-03-01T03:55:33;101574.47;;;2.22;40.12
4570;BME280;2297;51.442;6.996;2023-03-01T03:58:02;101583.13;;;2.21;39.86
4570;BME280;2297;51.442;6.996;2023-03-01T04:00:32;101578.66;;;2.17;39.91
4570;BME280;2297;51.442;6.996;2023-03-01T04:02:59;101562.28;;;2.21;39.88
4570;BME280;2297;51.442;6.996;2023-03-01T04:05:27;101572.81;;;2.24;39.87
4570;BME280;2297;51.442;6.996;2023-03-01T04:07:55;101569.19;;;2.19;39.78
4570;BME280;2297;51.442;6.996;2023-03-01T04:10:28;101564.06;;;2.22;39.83
4570;BME280;2297;51.442;6.996;2023-03-01T04:12:55;101558.75;;;2.19;39.80
4570;BME280;2297;51.442;6.996;2023-03-01T04:15:22;101561.50;;;2.23;40.00
4570;BME280;2297;51.442;6.996;2023-03-01T04:17:51;101561.34;;;2.19;39.86
4570;BME280;2297;51.442;6.996;2023-03-01T04:20:20;101557.69;;;2.13;40.09
4570;BME280;2297;51.442;6.996;2023-03-01T04:22:51;101564.47;;;2.08;39.96
4570;BME280;2297;51.442;6.996;2023-03-01T04:25:19;101563.34;;;2.00;40.14
4570;BME280;2297;51.442;6.996;2023-03-01T04:27:46;101558.13;;;2.00;40.01
4570;BME280;2297;51.442;6.996;2023-03-01T04:30:13;101568.31;;;1.94;40.28
4570;BME280;2297;51.442;6.996;2023-03-01T04:32:40;101567.41;;;1.92;40.36
4570;BME280;2297;51.442;6.996;2023-03-01T04:35:07;101568.22;;;1.91;40.32
4570;BME280;2297;51.442;6.996;2023-03-01T04:37:34;101570.88;;;1.92;40.28
4570;BME280;2297;51.442;6.996;2023-03-01T04:40:01;101567.41;;;1.92;40.22
4570;BME280;2297;51.442;6.996;2023-03-01T04:42:39;101570.69;;;1.88;40.35
4570;BME280;2297;51.442;6.996;2023-03-01T04:45:06;101568.97;;;1.87;40.43
4570;BME280;2297;51.442;6.996;2023-03-01T04:47:38;101571.34;;;1.80;40.53
4570;BME280;2297;51.442;6.996;2023-03-01T04:50:06;101569.59;;;1.81;40.34
4570;BME280;2297;51.442;6.996;2023-03-01T04:52:33;101561.59;;;1.75;40.61
4570;BME280;2297;51.442;6.996;2023-03-01T04:55:00;101557.25;;;1.75;40.48
4570;BME280;2297;51.442;6.996;2023-03-01T04:57:27;101563.25;;;1.73;40.26
4570;BME280;2297;51.442;6.996;2023-03-01T04:59:55;101560.69;;;1.74;40.27
4570;BME280;2297;51.442;6.996;2023-03-01T05:02:21;101564.16;;;1.73;40.52
4570;BME280;2297;51.442;6.996;2023-03-01T05:04:48;101572.66;;;1.69;40.47
4570;BME280;2297;51.442;6.996;2023-03-01T05:07:14;101561.09;;;1.61;40.73
4570;BME280;2297;51.442;6.996;2023-03-01T05:09:44;101560.25;;;1.62;40.82
4570;BME280;2297;51.442;6.996;2023-03-01T05:12:11;101556.94;;;1.66;40.79
4570;BME280;2297;51.442;6.996;2023-03-01T05:14:38;101555.28;;;1.68;40.75
4570;BME280;2297;51.442;6.996;2023-03-01T05:17:06;101551.81;;;1.69;40.70
4570;BME280;2297;51.442;6.996;2023-03-01T05:19:33;101553.50;;;1.67;40.73
4570;BME280;2297;51.442;6.996;2023-03-01T05:21:59;101545.69;;;1.67;40.73
4570;BME280;2297;51.442;6.996;2023-03-01T05:24:31;101543.19;;;1.70;40.75
4570;BME280;2297;51.442;6.996;2023-03-01T05:26:58;101543.91;;;1.66;40.79
4570;BME280;2297;51.442;6.996;2023-03-01T05:29:27;101542.84;;;1.61;40.77
4570;BME280;2297;51.442;6.996;2023-03-01T05:31:55;101531.56;;;1.60;40.84
4570;BME280;2297;51.442;6.996;2023-03-01T05:34:25;101534.44;;;1.68;40.72
4570;BME280;2297;51.442;6.996;2023-03-01T05:36:52;101534.31;;;1.65;40.64
4570;BME280;2297;51.442;6.996;2023-03-01T05:39:20;101534.31;;;1.65;40.60
4570;BME280;2297;51.442;6.996;2023-03-01T05:41:48;101533.34;;;1.61;40.83
4570;BME280;2297;51.442;6.996;2023-03-01T05:44:28;101531.50;;;1.59;40.67
4570;BME280;2297;51.442;6.996;2023-03-01T05:46:55;101541.97;;;1.60;40.67
4570;BME280;2297;51.442;6.996;2023-03-01T05:49:22;101537.31;;;1.52;40.72
4570;BME280;2297;51.442;6.996;2023-03-01T05:51:52;101542.47;;;1.50;40.91
4570;BME280;2297;51.442;6.996;2023-03-01T05:54:20;101540.53;;;1.44;40.76
4570;BME280;2297;51.442;6.996;2023-03-01T05:56:47;101540.69;;;1.49;40.96
4570;BME280;2297;51.442;6.996;2023-03-01T05:59:13;101537.13;;;1.45;40.94
4570;BME280;2297;51.442;6.996;2023-03-01T06:01:41;101533.56;;;1.43;40.88
4570;BME280;2297;51.442;6.996;2023-03-01T06:04:08;101539.53;;;1.41;40.97
4570;BME280;2297;51.442;6.996;2023-03-01T06:06:35;101533.31;;;1.37;41.11
4570;BME280;2297;51.442;6.996;2023-03-01T06:09:04;101536.41;;;1.27;41.35
4570;BME280;2297;51.442;6.996;2023-03-01T06:11:33;101532.97;;;1.28;41.49
4570;BME280;2297;51.442;6.996;2023-03-01T06:14:00;101527.06;;;1.32;41.29
4570;BME280;2297;51.442;6.996;2023-03-01T06:16:26;101526.22;;;1.33;41.38
4570;BME280;2297;51.442;6.996;2023-03-01T06:18:53;101523.69;;;1.35;41.31
4570;BME280;2297;51.442;6.996;2023-03-01T06:21:20;101527.88;;;1.29;41.97
4570;BME280;2297;51.442;6.996;2023-03-01T06:23:46;101522.44;;;1.25;42.11
4570;BME280;2297;51.442;6.996;2023-03-01T06:26:14;101533.63;;;1.22;41.89
4570;BME280;2297;51.442;6.996;2023-03-01T06:28:41;101524.88;;;1.20;42.04
4570;BME280;2297;51.442;6.996;2023-03-01T06:31:07;101528.59;;;1.27;41.91
4570;BME280;2297;51.442;6.996;2023-03-01T06:33:34;101515.44;;;1.24;42.25
4570;BME280;2297;51.442;6.996;2023-03-01T06:36:01;101519.59;;;1.19;42.58
4570;BME280;2297;51.442;6.996;2023-03-01T06:38:27;101517.22;;;1.25;42.24
4570;BME280;2297;51.442;6.996;2023-03-01T06:40:55;101521.75;;;1.29;42.25
4570;BME280;2297;51.442;6.996;2023-03-01T06:43:23;101514.84;;;1.29;41.69
4570;BME280;2297;51.442;6.996;2023-03-01T06:45:50;101523.47;;;1.28;41.57
4570;BME280;2297;51.442;6.996;2023-03-01T06:48:17;101525.19;;;1.28;41.64
4570;BME280;2297;51.442;6.996;2023-03-01T06:50:43;101525.00;;;1.23;41.63
4570;BME280;2297;51.442;6.996;2023-03-01T06:53:10;101525.00;;;1.23;41.84
4570;BME280;2297;51.442;6.996;2023-03-01T06:55:36;101526.19;;;1.31;41.43
4570;BME280;2297;51.442;6.996;2023-03-01T06:58:03;101523.69;;;1.35;41.32
4570;BME280;2297;51.442;6.996;2023-03-01T07:00:31;101524.44;;;1.32;41.54
4570;BME280;2297;51.442;6.996;2023-03-01T07:02:59;101522.44;;;1.25;42.44
4570;BME280;2297;51.442;6.996;2023-03-01T07:05:27;101520.19;;;1.34;41.63
4570;BME280;2297;51.442;6.996;2023-03-01T07:07:54;101521.38;;;1.42;41.60
4570;BME280;2297;51.442;6.996;2023-03-01T07:10:21;101522.09;;;1.38;41.44
4570;BME280;2297;51.442;6.996;2023-03-01T07:12:48;101522.91;;;1.37;41.48
4570;BME280;2297;51.442;6.996;2023-03-01T07:15:14;101518.66;;;1.39;41.63
4570;BME280;2297;51.442;6.996;2023-03-01T07:17:42;101519.47;;;1.38;41.47
4570;BME280;2297;51.442;6.996;2023-03-01T07:20:11;101514.22;;;1.37;42.64
4570;BME280;2297;51.442;6.996;2023-03-01T07:22:39;101514.50;;;1.44;41.76
4570;BME280;2297;51.442;6.996;2023-03-01T07:25:06;101508.97;;;1.35;41.92
4570;BME280;2297;51.442;6.996;2023-03-01T07:27:33;101511.66;;;1.38;41.77
4570;BME280;2297;51.442;6.996;2023-03-01T07:30:00;101508.41;;;1.44;41.61
4570;BME280;2297;51.442;6.996;2023-03-01T07:32:26;101502.53;;;1.50;41.73
4570;BME280;2297;51.442;6.996;2023-03-01T07:34:54;101501.78;;;1.52;41.52
4570;BME280;2297;51.442;6.996;2023-03-01T07:37:21;101507.16;;;1.58;41.59
4570;BME280;2297;51.442;6.996;2023-03-01T07:39:47;101506.63;;;1.67;41.51
4570;BME280;2297;51.442;6.996;2023-03-01T07:42:14;101508.28;;;1.65;41.12
4570;BME280;2297;51.442;6.996;2023-03-01T07:44:40;101508.41;;;1.68;41.09
4570;BME280;2297;51.442;6.996;2023-03-01T07:47:07;101506.94;;;1.76;41.79
4570;BME280;2297;51.442;6.996;2023-03-01T07:49:34;101503.69;;;1.84;41.45
4570;BME280;2297;51.442;6.996;2023-03-01T07:52:02;101499.56;;;1.90;40.53
4570;BME280;2297;51.442;6.996;2023-03-01T07:54:29;101508.25;;;1.89;41.47
4570;BME280;2297;51.442;6.996;2023-03-01T07:56:56;101502.41;;;1.96;40.41
4570;BME280;2297;51.442;6.996;2023-03-01T07:59:23;101501.88;;;2.07;39.99
4570;BME280;2297;51.442;6.996;2023-03-01T08:01:54;101501.16;;;2.11;39.86
4570;BME280;2297;51.442;6.996;2023-03-01T08:04:20;101506.69;;;2.22;39.73
4570;BME280;2297;51.442;6.996;2023-03-01T08:06:47;101510.25;;;2.24;39.62
4570;BME280;2297;51.442;6.996;2023-03-01T08:09:15;101510.44;;;2.30;39.77
4570;BME280;2297;51.442;6.996;2023-03-01T08:11:42;101510.56;;;2.33;39.52
4570;BME280;2297;51.442;6.996;2023-03-01T08:14:08;101508.25;;;2.42;39.27
4570;BME280;2297;51.442;6.996;2023-03-01T08:16:35;101506.75;;;2.51;39.49
4570;BME280;2297;51.442;6.996;2023-03-01T08:19:04;101510.94;;;2.45;39.09
4570;BME280;2297;51.442;6.996;2023-03-01T08:21:30;101510.66;;;2.36;39.04
4570;BME280;2297;51.442;6.996;2023-03-01T08:23:57;101502.38;;;2.50;38.91
4570;BME280;2297;51.442;6.996;2023-03-01T08:26:25;101501.66;;;2.55;38.51
4570;BME280;2297;51.442;6.996;2023-03-01T08:28:52;101506.28;;;2.64;38.32
4570;BME280;2297;51.442;6.996;2023-03-01T08:31:20;101503.59;;;2.61;38.14
4570;BME280;2297;51.442;6.996;2023-03-01T08:33:48;101505.47;;;2.65;38.18
4570;BME280;2297;51.442;6.996;2023-03-01T08:36:20;101508.34;;;2.74;38.03
4570;BME280;2297;51.442;6.996;2023-03-01T08:38:47;101508.16;;;2.68;37.73
4570;BME280;2297;51.442;6.996;2023-03-01T08:41:14;101504.72;;;2.69;37.83
4570;BME280;2297;51.442;6.996;2023-03-01T08:43:42;101496.34;;;2.79;37.82
4570;BME280;2297;51.442;6.996;2023-03-01T08:46:09;101487.91;;;2.90;37.45
4570;BME280;2297;51.442;6.996;2023-03-01T08:48:36;101486.44;;;2.98;37.46
4570;BME280;2297;51.442;6.996;2023-03-01T08:51:10;101489.88;;;2.97;37.46
4570;BME280;2297;51.442;6.996;2023-03-01T08:53:39;101484.94;;;3.06;37.27
4570;BME280;2297;51.442;6.996;2023-03-01T08:56:07;101487.91;;;2.90;37.59
4570;BME280;2297;51.442;6.996;2023-03-01T08:58:34;101472.25;;;2.90;37.76
4570;BME280;2297;51.442;6.996;2023-03-01T09:01:06;101476.88;;;2.98;37.70
4570;BME280;2297;51.442;6.996;2023-03-01T09:03:33;101489.22;;;3.04;37.57
4570;BME280;2297;51.442;6.996;2023-03-01T09:06:00;101469.47;;;3.12;37.52
4570;BME280;2297;51.442;6.996;2023-03-01T09:08:28;101476.69;;;3.23;37.39
4570;BME280;2297;51.442;6.996;2023-03-01T09:10:55;101477.09;;;3.37;37.30
4570;BME280;2297;51.442;6.996;2023-03-01T09:13:21;101479.22;;;3.52;37.29
4570;BME280;2297;51.442;6.996;2023-03-01T09:15:50;101470.84;;;3.65;37.10
4570;BME280;2297;51.442;6.996;2023-03-01T09:18:18;101471.19;;;3.77;36.99
4570;BME280;2297;51.442;6.996;2023-03-01T09:20:45;101467.84;;;3.81;36.75
4570;BME280;2297;51.442;6.996;2023-03-01T09:23:11;101468.97;;;3.93;36.58
4570;BME280;2297;51.442;6.996;2023-03-01T09:25:38;101469.13;;;3.97;36.40
4570;BME280;2297;51.442;6.996;2023-03-01T09:28:05;101468.25;;;3.98;36.06
4570;BME280;2297;51.442;6.996;2023-03-01T09:30:31;101466.53;;;3.99;35.86
4570;BME280;2297;51.442;6.996;2023-03-01T09:32:58;101461.56;;;3.75;35.31
4570;BME280;2297;51.442;6.996;2023-03-01T09:35:26;101459.03;;;3.78;35.31
4570;BME280;2297;51.442;6.996;2023-03-01T09:37:53;101452.16;;;3.81;35.12
4570;BME280;2297;51.442;6.996;2023-03-01T09:40:22;101452.28;;;3.88;35.09
4570;BME280;2297;51.442;6.996;2023-03-01T09:42:53;101447.22;;;3.94;34.86
4570;BME280;2297;51.442;6.996;2023-03-01T09:45:27;101444.91;;;4.06;34.65
4570;BME280;2297;51.442;6.996;2023-03-01T09:47:55;101444.22;;;4.13;34.61
4570;BME280;2297;51.442;6.996;2023-03-01T09:50:23;101449.59;;;4.20;34.44
4570;BME280;2297;51.442;6.996;2023-03-01T09:53:00;101447.13;;;4.26;34.41
4570;BME280;2297;51.442;6.996;2023-03-01T09:55:31;101442.16;;;4.38;34.33
4570;BME280;2297;51.442;6.996;2023-03-01T09:58:06;101446.81;;;4.52;33.97
4570;BME280;2297;51.442;6.996;2023-03-01T10:00:46;101448.88;;;4.65;33.72
4570;BME280;2297;51.442;6.996;2023-03-01T10:03:16;101440.25;;;4.69;33.70
4570;BME280;2297;51.442;6.996;2023-03-01T10:05:55;101438.75;;;4.82;33.42
4570;BME280;2297;51.442;6.996;2023-03-01T10:08:28;101434.56;;;4.90;33.30
4570;BME280;2297;51.442;6.996;2023-03-01T10:10:57;101444.47;;;5.05;33.77
4570;BME280;2297;51.442;6.996;2023-03-01T10:13:27;101432.91;;;4.95;33.05
4570;BME280;2297;51.442;6.996;2023-03-01T10:16:36;101440.22;;;5.10;32.92
4570;BME280;2297;51.442;6.996;2023-03-01T10:19:05;101440.25;;;5.13;32.66
4570;BME280;2297;51.442;6.996;2023-03-01T10:21:43;101439.19;;;5.02;32.24
4570;BME280;2297;51.442;6.996;2023-03-01T10:24:12;101427.16;;;5.13;32.19
4570;BME280;2297;51.442;6.996;2023-03-01T10:26:47;101417.72;;;5.23;32.41
4570;BME280;2297;51.442;6.996;2023-03-01T10:29:14;101416.00;;;5.22;31.97
4570;BME280;2297;51.442;6.996;2023-03-01T10:31:43;101418.81;;;5.35;32.05
4570;BME280;2297;51.442;6.996;2023-03-01T10:34:13;101418.84;;;5.36;31.93
4570;BME280;2297;51.442;6.996;2023-03-01T10:36:41;101412.13;;;5.51;32.04
4570;BME280;2297;51.442;6.996;2023-03-01T10:39:15;101404.34;;;5.55;31.84
4570;BME280;2297;51.442;6.996;2023-03-01T10:41:55;101406.88;;;5.51;31.63
4570;BME280;2297;51.442;6.996;2023-03-01T10:44:37;101414.00;;;5.58;31.17
4570;BME280;2297;51.442;6.996;2023-03-01T10:47:05;101410.78;;;5.71;30.93
4570;BME280;2297;51.442;6.996;2023-03-01T10:49:38;101394.94;;;5.65;30.82
4570;BME280;2297;51.442;6.996;2023-03-01T10:52:16;101386.88;;;5.56;30.98
4570;BME280;2297;51.442;6.996;2023-03-01T10:54:52;101385.63;;;5.84;30.86
4570;BME280;2297;51.442;6.996;2023-03-01T10:57:37;101379.53;;;5.87;30.45
4570;BME280;2297;51.442;6.996;2023-03-01T11:00:23;101367.66;;;6.09;30.11
4570;BME280;2297;51.442;6.996;2023-03-01T11:03:01;101363.47;;;6.23;30.21
4570;BME280;2297;51.442;6.996;2023-03-01T11:05:29;101360.69;;;6.11;30.02
4570;BME280;2297;51.442;6.996;2023-03-01T11:07:59;101369.59;;;6.24;30.09
4570;BME280;2297;51.442;6.996;2023-03-01T11:10:29;101365.41;;;6.38;29.95
4570;BME280;2297;51.442;6.996;2023-03-01T11:13:07;101354.22;;;6.53;29.79
4570;BME280;2297;51.442;6.996;2023-03-01T11:15:34;101352.56;;;6.60;29.44
4570;BME280;2297;51.442;6.996;2023-03-01T11:18:02;101343.81;;;6.58;29.20
4570;BME280;2297;51.442;6.996;2023-03-01T11:20:32;101335.13;;;6.65;29.47
4570;BME280;2297;51.442;6.996;2023-03-01T11:23:03;101337.13;;;6.88;29.04
4570;BME280;2297;51.442;6.996;2023-03-01T11:25:35;101338.03;;;6.88;29.05
4570;BME280;2297;51.442;6.996;2023-03-01T11:28:04;101330.22;;;6.96;29.14
4570;BME280;2297;51.442;6.996;2023-03-01T11:30:34;101336.53;;;7.13;29.08
4570;BME280;2297;51.442;6.996;2023-03-01T11:33:18;101337.59;;;7.31;28.64
4570;BME280;2297;51.442;6.996;2023-03-01T11:35:53;101331.53;;;7.38;28.86
4570;BME280;2297;51.442;6.996;2023-03-01T11:38:23;101347.44;;;7.55;28.36
4570;BME280;2297;51.442;6.996;2023-03-01T11:40:57;101344.94;;;7.72;28.36
4570;BME280;2297;51.442;6.996;2023-03-01T11:43:36;101350.25;;;7.78;27.99
4570;BME280;2297;51.442;6.996;2023-03-01T11:46:36;101347.75;;;7.97;27.57
4570;BME280;2297;51.442;6.996;2023-03-01T11:52:06;101347.03;;;8.26;27.44
4570;BME280;2297;51.442;6.996;2023-03-01T11:54:46;101341.78;;;8.26;27.18
4570;BME280;2297;51.442;6.996;2023-03-01T11:57:36;101338.25;;;8.21;27.41
4570;BME280;2297;51.442;6.996;2023-03-01T12:00:15;101340.06;;;8.37;27.21
4570;BME280;2297;51.442;6.996;2023-03-01T12:03:08;101333.03;;;8.30;27.35
4570;BME280;2297;51.442;6.996;2023-03-01T12:08:55;101333.13;;;8.62;27.15
4570;BME280;2297;51.442;6.996;2023-03-01T12:11:34;101324.47;;;8.80;26.97
4570;BME280;2297;51.442;6.996;2023-03-01T12:14:24;101327.97;;;8.79;26.96
4570;BME280;2297;51.442;6.996;2023-03-01T12:17:22;101317.47;;;8.95;26.83
4570;BME280;2297;51.442;6.996;2023-03-01T12:20:11;101309.59;;;9.04;26.47
4570;BME280;2297;51.442;6.996;2023-03-01T12:22:49;101306.06;;;9.21;26.82
4570;BME280;2297;51.442;6.996;2023-03-01T12:25:24;101297.28;;;9.42;26.47
4570;BME280;2297;51.442;6.996;2023-03-01T12:28:18;101284.06;;;9.62;26.49
4570;BME280;2297;51.442;6.996;2023-03-01T12:31:16;101278.81;;;9.59;26.17
4570;BME280;2297;51.442;6.996;2023-03-01T12:33:59;101279.69;;;9.67;26.34
4570;BME280;2297;51.442;6.996;2023-03-01T12:36:54;101281.41;;;9.99;26.01
4570;BME280;2297;51.442;6.996;2023-03-01T12:39:35;101285.78;;;10.03;25.53
4570;BME280;2297;51.442;6.996;2023-03-01T12:42:10;101278.75;;;10.11;25.02
4570;BME280;2297;51.442;6.996;2023-03-01T12:44:49;101275.06;;;10.43;24.96
4570;BME280;2297;51.442;6.996;2023-03-01T12:47:30;101267.91;;;10.67;25.03
4570;BME280;2297;51.442;6.996;2023-03-01T12:50:04;101274.91;;;10.71;24.46
4570;BME280;2297;51.442;6.996;2023-03-01T12:52:40;101263.72;;;10.27;24.44
4570;BME280;2297;51.442;6.996;2023-03-01T12:55:22;101264.53;;;10.39;24.64
4570;BME280;2297;51.442;6.996;2023-03-01T12:58:00;101261.94;;;10.26;24.92
4570;BME280;2297;51.442;6.996;2023-03-01T13:00:34;101262.91;;;9.99;24.91
4570;BME280;2297;51.442;6.996;2023-03-01T13:03:10;101264.72;;;9.75;25.05
4570;BME280;2297;51.442;6.996;2023-03-01T13:05:45;101266.50;;;9.58;25.43
4570;BME280;2297;51.442;6.996;2023-03-01T13:08:22;101262.06;;;9.75;25.02
4570;BME280;2297;51.442;6.996;2023-03-01T13:10:58;101266.50;;;9.73;25.16
4570;BME280;2297;51.442;6.996;2023-03-01T13:13:28;101262.13;;;9.61;25.51
4570;BME280;2297;51.442;6.996;2023-03-01T13:15:55;101261.19;;;9.79;25.17
4570;BME280;2297;51.442;6.996;2023-03-01T13:18:33;101253.31;;;9.65;25.21
4570;BME280;2297;51.442;6.996;2023-03-01T13:21:02;101248.84;;;9.86;25.09
4570;BME280;2297;51.442;6.996;2023-03-01T13:23:33;101237.41;;;9.92;25.08
4570;BME280;2297;51.442;6.996;2023-03-01T13:26:09;101241.75;;;10.14;25.02
4570;BME280;2297;51.442;6.996;2023-03-01T13:28:40;101239.97;;;10.17;24.84
4570;BME280;2297;51.442;6.996;2023-03-01T13:31:08;101237.41;;;9.96;25.20
4570;BME280;2297;51.442;6.996;2023-03-01T13:33:44;101240.03;;;10.10;25.53
4570;BME280;2297;51.442;6.996;2023-03-01T13:36:45;101227.66;;;10.20;25.43
4570;BME280;2297;51.442;6.996;2023-03-01T13:39:27;101230.22;;;10.36;25.00
4570;BME280;2297;51.442;6.996;2023-03-01T13:41:57;101223.16;;;10.36;24.73
4570;BME280;2297;51.442;6.996;2023-03-01T13:44:26;101215.06;;;10.64;24.82
4570;BME280;2297;51.442;6.996;2023-03-01T13:46:58;101217.59;;;10.81;24.83
4570;BME280;2297;51.442;6.996;2023-03-01T13:49:28;101205.19;;;10.89;24.60
4570;BME280;2297;51.442;6.996;2023-03-01T13:52:36;101203.16;;;11.24;24.48